createdAt,value
2019-03-10T00:00:29.042Z,72.58
2019-03-10T00:02:57.330Z,72.34
2019-03-10T00:05:25.872Z,72.05
2019-03-10T00:07:54.261Z,72.09
2019-03-10T00:10:22.559Z,72.18
2019-03-10T00:12:51.213Z,72.00
2019-03-10T00:15:19.516Z,71.97
2019-03-10T00:17:47.827Z,71.89
2019-03-10T00:20:16.200Z,72.01
2019-03-10T00:22:44.517Z,71.98
2019-03-10T00:25:12.981Z,71.96
2019-03-10T00:27:41.300Z,72.02
2019-03-10T00:30:14.503Z,71.77
2019-03-10T00:32:43.182Z,71.85
2019-03-10T00:35:12.021Z,71.71
2019-03-10T00:37:40.636Z,71.80
2019-03-10T00:40:21.002Z,71.50
2019-03-10T00:42:55.461Z,71.51
2019-03-10T00:46:01.844Z,71.37
2019-03-10T00:48:55.981Z,71.11
2019-03-10T00:51:30.246Z,71.20
2019-03-10T00:53:58.873Z,71.16
2019-03-10T00:56:27.429Z,71.25
2019-03-10T00:58:55.756Z,71.40
2019-03-10T01:01:24.059Z,71.44
2019-03-10T01:03:52.362Z,71.59
2019-03-10T01:06:20.663Z,71.60
2019-03-10T01:08:48.966Z,71.45
2019-03-10T01:11:17.625Z,71.57
2019-03-10T01:13:45.983Z,71.46
2019-03-10T01:16:14.596Z,71.56
2019-03-10T01:18:42.968Z,71.74
2019-03-10T01:21:11.442Z,71.78
2019-03-10T01:23:40.001Z,71.86
2019-03-10T01:26:08.611Z,72.05
2019-03-10T01:28:36.901Z,72.22
2019-03-10T01:31:23.564Z,72.24
2019-03-10T01:33:58.042Z,72.30
2019-03-10T01:36:25.308Z,72.31
2019-03-10T01:38:53.608Z,72.40
2019-03-10T01:41:22.338Z,72.58
2019-03-10T01:43:51.038Z,72.76
2019-03-10T01:46:19.330Z,72.90
2019-03-10T01:48:47.642Z,73.14
2019-03-10T01:51:15.940Z,73.31
2019-03-10T01:53:44.273Z,73.30
2019-03-10T01:56:12.562Z,73.61
2019-03-10T01:58:40.866Z,73.68
2019-03-10T02:01:09.166Z,73.96
2019-03-10T02:03:37.486Z,74.21
2019-03-10T02:06:05.788Z,74.34
2019-03-10T02:08:34.093Z,74.61
2019-03-10T02:11:02.406Z,74.92
2019-03-10T02:13:30.799Z,74.91
2019-03-10T02:15:59.112Z,75.43
2019-03-10T02:18:27.412Z,75.66
2019-03-10T02:20:55.715Z,75.78
2019-03-10T02:23:24.011Z,76.17
2019-03-10T02:25:52.636Z,76.24
2019-03-10T02:28:20.937Z,76.57
2019-03-10T02:30:49.605Z,76.90
2019-03-10T02:33:18.107Z,77.17
2019-03-10T02:35:46.417Z,77.24
2019-03-10T02:38:14.944Z,77.50
2019-03-10T02:40:43.674Z,77.65
2019-03-10T02:43:11.981Z,78.08
2019-03-10T02:45:40.379Z,78.11
2019-03-10T02:48:08.695Z,78.62
2019-03-10T02:50:36.990Z,79.05
2019-03-10T02:53:05.303Z,79.34
2019-03-10T02:55:33.628Z,79.80
2019-03-10T02:58:02.298Z,79.98
2019-03-10T03:00:30.598Z,80.32
2019-03-10T03:02:58.909Z,80.41
2019-03-10T03:05:27.222Z,81.04
2019-03-10T03:07:55.525Z,81.22
2019-03-10T03:10:23.819Z,81.89
2019-03-10T03:12:52.118Z,82.37
2019-03-10T03:15:20.436Z,82.19
2019-03-10T03:17:48.721Z,82.40
2019-03-10T03:20:17.166Z,82.70
2019-03-10T03:22:45.450Z,83.12
2019-03-10T03:25:13.843Z,82.99
2019-03-10T03:27:42.409Z,82.53
2019-03-10T03:30:13.873Z,83.39
2019-03-10T03:32:42.179Z,83.66
2019-03-10T03:35:33.323Z,84.39
2019-03-10T03:38:01.626Z,85.19
2019-03-10T03:40:30.600Z,85.72
2019-03-10T03:42:59.276Z,86.01
2019-03-10T03:45:27.594Z,86.46
2019-03-10T03:47:56.175Z,86.83
2019-03-10T03:50:24.469Z,86.80
2019-03-10T03:52:53.138Z,87.25
2019-03-10T03:55:21.716Z,87.15
2019-03-10T03:57:50.030Z,87.22
2019-03-10T04:00:20.019Z,87.78
2019-03-10T04:02:48.337Z,87.68
2019-03-10T04:05:16.618Z,87.84
2019-03-10T04:07:44.920Z,88.18
2019-03-10T04:10:13.539Z,88.45
2019-03-10T04:12:41.843Z,88.54
2019-03-10T04:15:10.154Z,88.59
2019-03-10T04:17:38.866Z,88.74
2019-03-10T04:20:09.362Z,88.82
2019-03-10T04:22:37.692Z,89.10
2019-03-10T04:25:07.372Z,89.02
2019-03-10T04:27:35.976Z,89.25
2019-03-10T04:30:06.830Z,89.51
2019-03-10T04:32:35.131Z,89.65
2019-03-10T04:35:03.716Z,89.85
2019-03-10T04:37:32.015Z,90.09
2019-03-10T04:40:00.322Z,90.36
2019-03-10T04:42:28.616Z,90.56
2019-03-10T04:44:56.933Z,90.70
2019-03-10T04:47:25.220Z,90.90
2019-03-10T04:49:53.830Z,91.03
2019-03-10T04:52:22.120Z,91.24
2019-03-10T04:55:26.001Z,91.46
2019-03-10T04:57:55.941Z,91.61
2019-03-10T05:00:24.456Z,91.82
2019-03-10T05:02:52.747Z,91.93
2019-03-10T05:05:21.048Z,92.12
2019-03-10T05:07:49.646Z,92.21
2019-03-10T05:10:17.950Z,92.31
2019-03-10T05:12:46.254Z,92.40
2019-03-10T05:15:14.883Z,92.64
2019-03-10T05:17:43.207Z,92.79
2019-03-10T05:20:11.847Z,92.90
2019-03-10T05:22:40.160Z,93.02
2019-03-10T05:25:17.579Z,93.12
2019-03-10T05:27:45.876Z,93.23
2019-03-10T05:30:14.260Z,93.28
2019-03-10T05:32:42.572Z,93.33
2019-03-10T05:35:10.857Z,93.43
2019-03-10T05:37:39.194Z,93.56
2019-03-10T05:40:08.232Z,93.60
2019-03-10T05:42:36.593Z,93.73
2019-03-10T05:45:08.648Z,93.82
2019-03-10T05:47:36.944Z,93.89
2019-03-10T05:50:06.187Z,93.95
2019-03-10T05:52:34.520Z,93.92
2019-03-10T05:55:02.828Z,93.89
2019-03-10T05:57:31.120Z,93.93
2019-03-10T05:59:59.748Z,94.00
2019-03-10T06:02:28.024Z,94.11
2019-03-10T06:04:56.324Z,94.09
2019-03-10T06:07:24.663Z,94.16
2019-03-10T06:09:52.947Z,94.20
2019-03-10T06:12:21.239Z,94.24
2019-03-10T06:14:49.525Z,94.27
2019-03-10T06:17:17.862Z,94.32
2019-03-10T06:19:46.279Z,94.32
2019-03-10T06:22:14.574Z,94.31
2019-03-10T06:24:42.872Z,94.36
2019-03-10T06:27:11.175Z,94.43
2019-03-10T06:29:39.474Z,94.46
2019-03-10T06:32:07.786Z,94.38
2019-03-10T06:34:36.148Z,94.36
2019-03-10T06:37:04.468Z,94.38
2019-03-10T06:39:32.792Z,94.35
2019-03-10T06:42:01.093Z,94.30
2019-03-10T06:44:29.383Z,94.28
2019-03-10T06:46:57.664Z,94.28
2019-03-10T06:49:25.993Z,94.40
2019-03-10T06:51:54.286Z,94.41
2019-03-10T06:54:22.946Z,94.48
2019-03-10T06:56:51.253Z,94.52
2019-03-10T06:59:19.548Z,94.54
2019-03-10T07:01:47.899Z,94.49
2019-03-10T07:04:16.555Z,94.42
2019-03-10T07:06:44.857Z,94.42
2019-03-10T07:09:13.511Z,94.42
2019-03-10T07:11:42.088Z,94.31
2019-03-10T07:14:10.383Z,94.28
2019-03-10T07:16:38.711Z,94.25
2019-03-10T07:19:07.027Z,94.30
2019-03-10T07:21:35.339Z,94.29
2019-03-10T07:24:04.209Z,94.23
2019-03-10T07:26:32.532Z,94.11
2019-03-10T07:29:02.467Z,93.89
2019-03-10T07:31:32.420Z,93.76
2019-03-10T07:34:11.109Z,93.61
2019-03-10T07:36:41.340Z,93.64
2019-03-10T07:39:14.238Z,93.67
2019-03-10T07:42:00.489Z,93.66
2019-03-10T07:44:46.379Z,93.42
2019-03-10T07:47:31.324Z,93.35
2019-03-10T07:50:10.223Z,93.37
2019-03-10T07:52:56.450Z,93.20
2019-03-10T07:55:26.384Z,93.19
2019-03-10T07:58:05.654Z,93.15
2019-03-10T08:00:35.597Z,93.16
2019-03-10T08:03:11.789Z,92.84
2019-03-10T08:05:41.725Z,93.07
2019-03-10T08:08:17.703Z,93.30
2019-03-10T08:10:50.523Z,93.25
2019-03-10T08:13:26.213Z,93.16
2019-03-10T08:16:12.117Z,92.76
2019-03-10T08:18:44.872Z,92.77
2019-03-10T08:21:17.572Z,92.76
2019-03-10T08:23:50.195Z,92.74
2019-03-10T08:26:23.094Z,92.47
2019-03-10T08:28:56.291Z,92.37
2019-03-10T08:31:26.220Z,92.16
2019-03-10T08:33:56.134Z,92.10
2019-03-10T08:36:42.401Z,92.19
2019-03-10T08:39:18.266Z,92.22
2019-03-10T08:41:53.924Z,92.53
2019-03-10T08:44:42.183Z,92.54
2019-03-10T08:47:12.438Z,92.31
2019-03-10T08:49:45.688Z,91.86
2019-03-10T08:52:15.945Z,91.64
2019-03-10T08:54:54.883Z,91.89
2019-03-10T08:57:36.790Z,92.25
2019-03-10T09:00:12.871Z,92.42
2019-03-10T09:02:51.986Z,92.62
2019-03-10T09:05:36.926Z,92.81
2019-03-10T09:08:23.030Z,92.61
2019-03-10T09:10:56.218Z,92.48
2019-03-10T09:13:26.145Z,92.46
2019-03-10T09:15:56.078Z,92.36
2019-03-10T09:18:28.450Z,92.49
2019-03-10T09:21:04.698Z,92.46
2019-03-10T09:23:46.647Z,92.58
2019-03-10T09:26:25.364Z,92.38
2019-03-10T09:29:04.088Z,92.09
2019-03-10T09:31:34.023Z,91.86
2019-03-10T09:34:06.951Z,91.06
2019-03-10T09:36:46.293Z,90.82
2019-03-10T09:39:32.678Z,90.58
2019-03-10T09:42:12.308Z,90.80
2019-03-10T09:44:44.904Z,91.10
2019-03-10T09:47:20.944Z,90.95
2019-03-10T09:49:59.634Z,90.92
2019-03-10T09:52:29.883Z,90.81
2019-03-10T09:55:14.884Z,90.64
2019-03-10T09:57:44.843Z,89.69
2019-03-10T10:00:23.523Z,89.24
2019-03-10T10:02:53.466Z,88.58
2019-03-10T10:05:26.087Z,89.27
2019-03-10T10:07:56.029Z,90.05
2019-03-10T10:10:44.353Z,90.20
2019-03-10T10:13:30.559Z,89.78
2019-03-10T10:16:15.853Z,89.57
2019-03-10T10:18:45.803Z,89.76
2019-03-10T10:21:32.124Z,90.10
2019-03-10T10:24:02.065Z,90.45
2019-03-10T10:26:41.276Z,90.84
2019-03-10T10:29:27.681Z,91.10
2019-03-10T10:32:00.575Z,91.31
2019-03-10T10:34:32.931Z,91.32
2019-03-10T10:37:05.571Z,91.78
2019-03-10T10:39:35.526Z,92.08
2019-03-10T10:42:11.179Z,92.08
2019-03-10T10:44:56.215Z,91.68
2019-03-10T10:47:32.514Z,91.41
2019-03-10T10:50:20.713Z,91.14
2019-03-10T10:53:02.870Z,91.21
2019-03-10T10:55:41.902Z,91.30
2019-03-10T10:58:14.879Z,91.42
2019-03-10T11:00:56.668Z,91.74
2019-03-10T11:03:35.259Z,92.17
2019-03-10T11:06:11.299Z,92.67
2019-03-10T11:08:46.947Z,93.24
2019-03-10T11:11:33.185Z,93.24
2019-03-10T11:14:15.285Z,93.41
2019-03-10T11:16:45.544Z,93.80
2019-03-10T11:19:15.650Z,94.21
2019-03-10T11:21:48.490Z,94.15
2019-03-10T11:24:27.635Z,94.46
2019-03-10T11:26:57.571Z,94.49
2019-03-10T11:29:33.191Z,94.52
2019-03-10T11:32:09.118Z,94.82
2019-03-10T11:34:42.005Z,94.69
2019-03-10T11:37:20.737Z,94.35
2019-03-10T11:39:50.951Z,94.08
2019-03-10T11:42:39.221Z,94.00
2019-03-10T11:45:23.391Z,94.13
2019-03-10T11:48:05.210Z,93.94
2019-03-10T11:50:35.162Z,93.96
2019-03-10T11:53:19.201Z,93.56
2019-03-10T11:55:45.676Z,93.47
2019-03-10T11:58:18.480Z,92.85
2019-03-10T12:00:48.525Z,92.50
2019-03-10T12:03:18.507Z,92.03
2019-03-10T12:05:48.413Z,91.94
2019-03-10T12:08:21.263Z,91.60
2019-03-10T12:10:49.829Z,91.15
2019-03-10T12:13:18.121Z,90.58
2019-03-10T12:15:46.507Z,91.24
2019-03-10T12:18:14.828Z,91.52
2019-03-10T12:20:43.143Z,91.78
2019-03-10T12:23:11.436Z,91.83
2019-03-10T12:25:39.767Z,92.46
2019-03-10T12:28:08.140Z,92.36
2019-03-10T12:30:36.451Z,92.26
2019-03-10T12:33:05.073Z,91.98
2019-03-10T12:35:34.686Z,91.37
2019-03-10T12:38:03.470Z,91.19
2019-03-10T12:40:31.772Z,90.74
2019-03-10T12:43:00.076Z,89.80
2019-03-10T12:45:28.377Z,89.70
2019-03-10T12:47:56.687Z,89.80
2019-03-10T12:50:25.076Z,89.61
2019-03-10T12:52:53.392Z,89.27
2019-03-10T12:55:21.696Z,89.13
2019-03-10T12:57:50.298Z,89.86
2019-03-10T13:00:18.660Z,90.74
2019-03-10T13:02:47.355Z,90.78
2019-03-10T13:05:15.869Z,90.24
2019-03-10T13:07:44.169Z,89.87
2019-03-10T13:10:12.899Z,89.18
2019-03-10T13:12:41.303Z,88.11
2019-03-10T13:15:11.654Z,88.06
2019-03-10T13:17:39.941Z,87.19
2019-03-10T13:20:10.461Z,87.58
2019-03-10T13:22:38.819Z,86.97
2019-03-10T13:25:10.425Z,86.55
2019-03-10T13:27:38.803Z,86.43
2019-03-10T13:30:09.634Z,86.48
2019-03-10T13:32:37.976Z,86.88
2019-03-10T13:35:06.852Z,87.74
2019-03-10T13:37:35.176Z,88.22
2019-03-10T13:40:05.418Z,89.22
2019-03-10T13:42:33.741Z,89.76
2019-03-10T13:45:02.294Z,90.40
2019-03-10T13:47:30.595Z,91.01
2019-03-10T13:49:59.152Z,92.40
2019-03-10T13:52:27.457Z,92.22
2019-03-10T13:54:55.756Z,91.59
2019-03-10T13:57:24.058Z,90.33
2019-03-10T13:59:52.363Z,89.20
2019-03-10T14:02:20.646Z,87.72
2019-03-10T14:04:49.438Z,86.10
2019-03-10T14:07:18.080Z,84.35
2019-03-10T14:09:46.692Z,82.74
2019-03-10T14:12:15.200Z,79.81
2019-03-10T14:14:43.506Z,77.89
2019-03-10T14:17:12.094Z,76.22
2019-03-10T14:19:40.409Z,75.90
2019-03-10T14:22:08.698Z,75.92
2019-03-10T14:24:37.369Z,75.70
2019-03-10T14:27:05.741Z,75.52
2019-03-10T14:29:34.050Z,73.18
2019-03-10T14:32:02.338Z,72.43
2019-03-10T14:34:31.020Z,70.76
2019-03-10T14:36:59.301Z,70.61
2019-03-10T14:39:27.659Z,70.61
2019-03-10T14:41:55.959Z,70.77
2019-03-10T14:44:24.316Z,71.37
2019-03-10T14:46:52.634Z,70.93
2019-03-10T14:49:23.492Z,70.73
2019-03-10T14:51:51.185Z,70.92
2019-03-10T14:54:19.484Z,70.78
2019-03-10T14:56:47.788Z,70.30
2019-03-10T14:59:16.090Z,70.92
2019-03-10T15:01:44.395Z,71.08
2019-03-10T15:04:12.954Z,71.47
2019-03-10T15:06:41.558Z,71.74
2019-03-10T15:09:09.831Z,72.29
2019-03-10T15:11:38.138Z,72.14
2019-03-10T15:14:06.441Z,71.20
2019-03-10T15:16:35.056Z,72.51
2019-03-10T15:19:03.370Z,72.08
2019-03-10T15:21:31.931Z,73.00
2019-03-10T15:24:00.224Z,72.67
2019-03-10T15:26:28.611Z,72.81
2019-03-10T15:28:56.904Z,72.82
2019-03-10T15:31:29.779Z,72.86
2019-03-10T15:33:58.450Z,73.07
2019-03-10T15:36:26.760Z,73.08
2019-03-10T15:38:55.117Z,72.78
2019-03-10T15:41:23.458Z,73.61
2019-03-10T15:43:51.730Z,73.42
2019-03-10T15:46:20.123Z,73.63
2019-03-10T15:48:48.452Z,73.22
2019-03-10T15:51:16.767Z,73.59
2019-03-10T15:53:45.042Z,73.53
2019-03-10T15:56:13.377Z,73.32
2019-03-10T15:58:41.686Z,72.97
2019-03-10T16:01:10.059Z,73.43
2019-03-10T16:03:38.651Z,72.89
2019-03-10T16:06:07.138Z,73.07
2019-03-10T16:08:35.502Z,73.39
2019-03-10T16:11:04.062Z,73.71
2019-03-10T16:13:32.689Z,74.32
2019-03-10T16:16:01.294Z,75.38
2019-03-10T16:18:29.599Z,76.67
2019-03-10T16:20:57.944Z,77.80
2019-03-10T16:23:26.238Z,78.82
2019-03-10T16:25:54.527Z,78.83
2019-03-10T16:28:22.863Z,79.60
2019-03-10T16:30:51.390Z,80.03
2019-03-10T16:33:19.722Z,80.50
2019-03-10T16:35:48.314Z,80.17
2019-03-10T16:38:16.631Z,80.00
2019-03-10T16:40:44.938Z,79.20
2019-03-10T16:43:13.237Z,80.33
2019-03-10T16:45:41.827Z,80.30
2019-03-10T16:48:10.132Z,81.11
2019-03-10T16:50:38.426Z,81.63
2019-03-10T16:53:06.707Z,81.60
2019-03-10T16:55:34.999Z,81.73
2019-03-10T16:58:03.284Z,82.60
2019-03-10T17:00:31.857Z,82.36
2019-03-10T17:03:00.497Z,83.50
2019-03-10T17:05:29.045Z,83.88
2019-03-10T17:07:57.356Z,84.13
2019-03-10T17:10:26.850Z,84.61
2019-03-10T17:12:55.203Z,85.16
2019-03-10T17:15:24.362Z,84.70
2019-03-10T17:17:52.808Z,85.81
2019-03-10T17:20:21.294Z,86.20
2019-03-10T17:22:49.603Z,86.71
2019-03-10T17:25:18.232Z,86.72
2019-03-10T17:27:46.570Z,87.22
2019-03-10T17:30:17.113Z,87.29
2019-03-10T17:32:45.637Z,87.40
2019-03-10T17:35:14.473Z,87.01
2019-03-10T17:37:43.087Z,87.76
2019-03-10T17:40:16.517Z,88.07
2019-03-10T17:42:44.832Z,87.41
2019-03-10T17:45:17.958Z,87.43
2019-03-10T17:47:46.318Z,87.78
2019-03-10T17:50:16.942Z,87.40
2019-03-10T17:52:45.465Z,87.02
2019-03-10T17:55:19.977Z,87.84
2019-03-10T17:57:48.273Z,88.17
2019-03-10T18:00:28.683Z,88.03
2019-03-10T18:02:57.013Z,88.06
2019-03-10T18:05:25.391Z,87.94
2019-03-10T18:07:53.680Z,87.30
2019-03-10T18:10:22.062Z,88.09
2019-03-10T18:12:50.372Z,88.52
2019-03-10T18:15:19.486Z,88.53
2019-03-10T18:17:47.950Z,88.46
2019-03-10T18:20:21.790Z,88.34
2019-03-10T18:22:50.110Z,87.95
2019-03-10T18:25:18.648Z,87.94
2019-03-10T18:27:47.043Z,88.91
2019-03-10T18:30:17.965Z,88.75
2019-03-10T18:32:46.510Z,89.25
2019-03-10T18:35:15.154Z,89.31
2019-03-10T18:37:43.698Z,89.46
2019-03-10T18:40:21.114Z,89.45
2019-03-10T18:42:49.527Z,89.56
2019-03-10T18:45:18.745Z,89.29
2019-03-10T18:47:47.372Z,88.93
2019-03-10T18:50:21.639Z,89.21
2019-03-10T18:52:50.065Z,89.37
2019-03-10T18:55:18.983Z,89.82
2019-03-10T18:57:47.496Z,89.85
2019-03-10T19:00:29.514Z,89.96
2019-03-10T19:03:36.010Z,90.09
2019-03-10T19:06:04.706Z,90.22
2019-03-10T19:08:33.392Z,89.17
2019-03-10T19:11:02.135Z,90.17
2019-03-10T19:13:30.513Z,89.37
2019-03-10T19:15:58.854Z,88.94
2019-03-10T19:18:27.140Z,89.95
2019-03-10T19:20:55.463Z,90.59
2019-03-10T19:23:23.764Z,90.92
2019-03-10T19:25:52.075Z,91.17
2019-03-10T19:28:20.354Z,91.28
2019-03-10T19:30:48.670Z,91.44
2019-03-10T19:33:17.270Z,91.55
2019-03-10T19:35:45.590Z,91.71
2019-03-10T19:38:13.991Z,91.69
2019-03-10T19:40:42.393Z,91.61
2019-03-10T19:43:10.770Z,90.64
2019-03-10T19:45:39.535Z,90.71
2019-03-10T19:48:08.250Z,90.96
2019-03-10T19:50:36.650Z,90.53
2019-03-10T19:53:05.392Z,90.23
2019-03-10T19:55:33.740Z,90.28
2019-03-10T19:58:02.478Z,90.97
2019-03-10T20:00:30.893Z,90.62
2019-03-10T20:02:59.280Z,90.62
2019-03-10T20:05:27.689Z,90.65
2019-03-10T20:07:56.129Z,90.25
2019-03-10T20:10:24.599Z,90.51
2019-03-10T20:12:52.997Z,90.43
2019-03-10T20:15:23.449Z,90.00
2019-03-10T20:17:51.815Z,90.26
2019-03-10T20:20:31.327Z,90.09
2019-03-10T20:23:01.170Z,90.17
2019-03-10T20:25:29.700Z,89.18
2019-03-10T20:27:57.980Z,89.83
2019-03-10T20:30:27.335Z,90.11
2019-03-10T20:32:55.740Z,88.92
2019-03-10T20:35:24.091Z,89.99
2019-03-10T20:37:52.736Z,89.99
2019-03-10T20:40:22.840Z,90.20
2019-03-10T20:42:51.135Z,90.35
2019-03-10T20:45:19.794Z,90.22
2019-03-10T20:47:48.267Z,88.98
2019-03-10T20:50:17.868Z,89.38
2019-03-10T20:52:46.140Z,88.66
2019-03-10T20:55:15.363Z,88.30
2019-03-10T20:57:44.181Z,89.36
2019-03-10T21:00:18.695Z,89.58
2019-03-10T21:02:47.096Z,89.90
2019-03-10T21:05:15.458Z,89.91
2019-03-10T21:07:44.132Z,89.71
2019-03-10T21:10:15.506Z,89.59
2019-03-10T21:12:47.107Z,89.29
2019-03-10T21:15:20.129Z,89.79
2019-03-10T21:17:48.536Z,89.71
2019-03-10T21:20:18.057Z,89.60
2019-03-10T21:22:46.357Z,89.73
2019-03-10T21:25:28.327Z,89.55
2019-03-10T21:27:56.579Z,89.79
2019-03-10T21:30:26.703Z,89.71
2019-03-10T21:32:55.273Z,89.59
2019-03-10T21:35:23.563Z,89.67
2019-03-10T21:37:52.134Z,89.65
2019-03-10T21:40:23.363Z,89.35
2019-03-10T21:43:10.563Z,89.56
2019-03-10T21:45:38.855Z,89.17
2019-03-10T21:48:07.169Z,89.45
2019-03-10T21:50:35.465Z,89.36
2019-03-10T21:53:03.768Z,89.43
2019-03-10T21:55:32.050Z,89.37
2019-03-10T21:58:00.369Z,89.18
2019-03-10T22:00:28.768Z,89.19
2019-03-10T22:02:57.077Z,89.36
2019-03-10T22:05:25.381Z,89.48
2019-03-10T22:07:53.948Z,89.27
2019-03-10T22:10:27.455Z,88.80
2019-03-10T22:12:52.650Z,88.88
2019-03-10T22:15:21.431Z,88.57
2019-03-10T22:17:50.374Z,88.86
2019-03-10T22:20:22.077Z,88.98
2019-03-10T22:22:50.421Z,89.08
2019-03-10T22:25:18.753Z,87.95
2019-03-10T22:27:59.229Z,88.57
2019-03-10T22:30:28.992Z,88.26
2019-03-10T22:32:57.447Z,88.36
2019-03-10T22:35:25.801Z,88.52
2019-03-10T22:37:54.114Z,88.68
2019-03-10T22:40:22.493Z,87.88
2019-03-10T22:42:51.995Z,87.62
2019-03-10T22:45:21.335Z,86.84
2019-03-10T22:51:02.606Z,88.26
2019-03-10T22:53:31.112Z,88.19
2019-03-10T22:55:59.421Z,88.07
2019-03-10T22:58:27.696Z,88.37
2019-03-10T23:00:56.956Z,88.45
2019-03-10T23:03:25.252Z,88.57
2019-03-10T23:05:53.740Z,88.58
2019-03-10T23:08:33.040Z,88.30
2019-03-10T23:11:02.096Z,88.59
2019-03-10T23:13:33.032Z,88.87
2019-03-10T23:16:01.787Z,88.62
2019-03-10T23:18:30.100Z,88.64
2019-03-10T23:20:58.396Z,88.84
2019-03-10T23:23:26.724Z,88.55
2019-03-10T23:25:55.005Z,88.84
2019-03-10T23:28:25.991Z,88.97
2019-03-10T23:30:54.631Z,89.06
2019-03-10T23:33:23.199Z,88.96
2019-03-10T23:35:51.507Z,89.07
2019-03-10T23:38:19.894Z,89.08
2019-03-10T23:40:48.201Z,89.05
2019-03-10T23:43:16.533Z,89.06
2019-03-10T23:45:44.898Z,88.97
2019-03-10T23:48:13.486Z,89.13
2019-03-10T23:50:42.152Z,89.08
2019-03-10T23:53:10.436Z,89.14
2019-03-10T23:55:38.782Z,88.97
2019-03-10T23:58:07.064Z,88.29
